Time;durP1;ratioP1;P1;durP2;ratioP2;P2;SDS_P1;SDS_P2;PMS_P1;PMS_P2;Temp;Humidity;BMP_temperature;BMP_pressure;BME280_temperature;BME280_humidity;BME280_pressure;Samples;Min_cycle;Max_cycle;Signal;HPM_P1;HPM_P2
2021/11/11 00:02:04;;;;;;;13.50;5.93;;;;;;;10.10;43.52;102246.50;5035427;28;20036;-58
2021/11/11 00:04:30;;;;;;;10.90;6.05;;;;;;;10.07;43.25;102241.31;5018168;28;20076;-57
2021/11/11 00:06:59;;;;;;;12.38;6.03;;;;;;;10.03;43.28;102237.09;5035518;28;20039;-57
2021/11/11 00:09:26;;;;;;;16.23;7.20;;;;;;;10.01;43.01;102241.69;5035102;28;20029;-57
2021/11/11 00:11:52;;;;;;;11.20;6.15;;;;;;;9.95;43.84;102233.06;5034924;28;20076;-57
2021/11/11 00:14:18;;;;;;;14.85;6.93;;;;;;;9.93;43.50;102232.31;5035159;28;20025;-58
2021/11/11 00:16:43;;;;;;;12.52;6.20;;;;;;;9.90;43.30;102237.84;5035451;28;20029;-59
2021/11/11 00:19:09;;;;;;;15.07;6.22;;;;;;;9.86;42.89;102225.56;5035001;28;20437;-57
2021/11/11 00:21:34;;;;;;;10.45;5.93;;;;;;;9.83;43.41;102230.25;5034667;28;20096;-57
2021/11/11 00:24:01;;;;;;;14.95;7.30;;;;;;;9.83;43.63;102241.81;5034724;28;20055;-57
2021/11/11 00:26:28;;;;;;;13.27;6.88;;;;;;;9.80;43.37;102231.28;5035263;28;20030;-58
2021/11/11 00:28:53;;;;;;;19.02;8.70;;;;;;;9.79;43.73;102228.72;5034648;28;20026;-58
2021/11/11 00:31:19;;;;;;;16.55;7.10;;;;;;;9.74;43.70;102223.59;5035170;28;20120;-57
2021/11/11 00:33:44;;;;;;;15.82;6.13;;;;;;;9.77;43.35;102215.41;5034905;28;20036;-58
2021/11/11 00:36:09;;;;;;;15.60;6.80;;;;;;;9.75;43.70;102203.94;5034623;28;20029;-58
2021/11/11 00:38:35;;;;;;;12.43;6.55;;;;;;;9.76;43.82;102203.00;5016802;28;20033;-58
2021/11/11 00:41:00;;;;;;;13.38;6.10;;;;;;;9.72;43.49;102198.75;5034944;28;20033;-58
2021/11/11 00:43:26;;;;;;;19.65;7.13;;;;;;;9.73;43.61;102203.19;5034440;28;20587;-58
2021/11/11 00:45:51;;;;;;;12.80;6.55;;;;;;;9.68;43.15;102199.03;5034555;28;20025;-59
2021/11/11 00:48:17;;;;;;;22.27;7.05;;;;;;;9.70;43.03;102203.34;5033978;28;20115;-58
2021/11/11 00:50:42;;;;;;;13.50;6.38;;;;;;;9.57;43.00;102185.44;5000774;28;20022;-58
2021/11/11 00:53:08;;;;;;;15.10;6.38;;;;;;;9.63;43.23;102207.31;5034048;28;20486;-59
2021/11/11 00:55:37;;;;;;;11.65;6.53;;;;;;;9.63;43.05;102201.97;5034413;28;20100;-57
2021/11/11 00:58:03;;;;;;;14.27;7.40;;;;;;;9.62;43.77;102194.91;5034633;28;20436;-57
2021/11/11 01:00:29;;;;;;;13.50;6.43;;;;;;;9.60;43.20;102185.25;5017018;28;20027;-57
2021/11/11 01:02:56;;;;;;;13.32;6.40;;;;;;;9.60;43.94;102185.25;5034760;28;20104;-58
2021/11/11 01:05:21;;;;;;;9.82;6.50;;;;;;;9.57;43.81;102180.97;5034742;28;20032;-57
2021/11/11 01:07:47;;;;;;;10.48;6.10;;;;;;;9.57;43.84;102186.31;5034461;28;20104;-58
2021/11/11 01:10:16;;;;;;;18.60;7.30;;;;;;;9.56;44.14;102181.91;5034074;28;20022;-57
2021/11/11 01:12:43;;;;;;;12.88;6.65;;;;;;;9.51;43.63;102181.31;5016250;28;20497;-57
2021/11/11 01:15:11;;;;;;;11.85;6.43;;;;;;;9.53;43.84;102179.41;5016493;28;20049;-58
2021/11/11 01:17:37;;;;;;;15.40;7.13;;;;;;;9.54;43.93;102181.13;5034096;28;20072;-58
2021/11/11 01:20:05;;;;;;;11.18;6.22;;;;;;;9.54;43.70;102180.25;5034177;28;20032;-59
2021/11/11 01:22:30;;;;;;;11.77;6.57;;;;;;;9.52;44.07;102185.69;5034465;28;20088;-56
2021/11/11 01:24:55;;;;;;;11.00;6.95;;;;;;;9.51;43.81;102180.44;5016006;28;20462;-57
2021/11/11 01:27:21;;;;;;;16.27;6.05;;;;;;;9.50;43.51;102176.91;5016448;28;20037;-57
2021/11/11 01:29:46;;;;;;;16.58;6.80;;;;;;;9.48;43.30;102181.47;5034015;28;20021;-57
2021/11/11 01:32:12;;;;;;;15.10;7.35;;;;;;;9.50;43.28;102178.69;5016189;28;20022;-57
2021/11/11 01:34:37;;;;;;;21.33;7.70;;;;;;;9.40;43.16;102167.69;5033819;28;20386;-58
2021/11/11 01:37:03;;;;;;;15.43;6.85;;;;;;;9.43;43.41;102178.22;5016597;28;20025;-58
2021/11/11 01:39:28;;;;;;;12.88;6.30;;;;;;;9.42;43.47;102176.47;5034227;28;20470;-56
2021/11/11 01:41:54;;;;;;;10.68;6.05;;;;;;;9.38;43.44;102180.28;5033885;28;20140;-57
2021/11/11 01:44:20;;;;;;;12.00;6.38;;;;;;;9.40;44.16;102181.06;5034109;28;20018;-57
2021/11/11 01:46:46;;;;;;;11.95;7.10;;;;;;;9.37;43.17;102167.88;5033941;28;20057;-57
2021/11/11 01:49:13;;;;;;;11.73;6.82;;;;;;;9.38;44.10;102165.09;5033997;28;20115;-58
2021/11/11 01:51:39;;;;;;;14.48;6.35;;;;;;;9.38;43.18;102165.09;5033927;28;20045;-57
2021/11/11 01:54:04;;;;;;;20.17;7.28;;;;;;;9.42;44.06;102165.78;5034032;28;20029;-57
2021/11/11 01:56:30;;;;;;;14.18;6.53;;;;;;;9.43;43.29;102161.31;5034538;28;20021;-56
2021/11/11 01:58:57;;;;;;;20.70;8.15;;;;;;;9.40;43.85;102154.31;5034585;28;20049;-58
2021/11/11 02:01:23;;;;;;;17.33;7.88;;;;;;;9.47;43.46;102166.38;5034298;28;20056;-57
2021/11/11 02:03:48;;;;;;;16.83;7.35;;;;;;;9.55;43.88;102171.31;5034552;28;20021;-57
2021/11/11 02:06:14;;;;;;;12.30;6.07;;;;;;;9.58;43.79;102177.31;5037062;28;20021;-58
2021/11/11 02:08:39;;;;;;;11.68;6.10;;;;;;;9.61;43.20;102182.47;5037670;28;20485;-58
2021/11/11 02:11:05;;;;;;;12.43;6.00;;;;;;;9.62;43.23;102173.50;5020776;28;20033;-58
2021/11/11 02:13:30;;;;;;;17.00;6.97;;;;;;;9.62;43.79;102167.31;5020341;28;20083;-57
2021/11/11 02:15:56;;;;;;;12.30;6.80;;;;;;;9.60;43.42;102170.09;5019967;28;20025;-57
2021/11/11 02:18:21;;;;;;;11.27;6.25;;;;;;;9.58;43.21;102173.75;5037685;28;20088;-57
2021/11/11 02:20:47;;;;;;;12.02;6.05;;;;;;;9.50;43.90;102176.91;5020090;28;20028;-58
2021/11/11 02:23:15;;;;;;;11.85;6.40;;;;;;;9.50;43.78;102178.69;5038070;28;20039;-57
2021/11/11 02:25:41;;;;;;;13.13;6.03;;;;;;;9.47;43.36;102190.44;5037582;28;20028;-58
2021/11/11 02:28:12;;;;;;;12.40;6.05;;;;;;;9.45;43.97;102187.00;5020263;28;20033;-59
2021/11/11 02:30:38;;;;;;;14.85;5.88;;;;;;;9.44;43.52;102189.75;5037340;28;20021;-58
2021/11/11 02:33:11;;;;;;;12.68;6.90;;;;;;;9.43;43.90;102186.25;5020098;28;20025;-58
2021/11/11 02:35:37;;;;;;;;;;;;;;;9.43;43.95;102183.56;5020325;28;20076;-58
2021/11/11 02:38:03;;;;;;;10.98;5.88;;;;;;;9.40;43.49;102175.72;5019346;28;19917;-58
2021/11/11 02:40:29;;;;;;;14.52;7.22;;;;;;;9.38;44.34;102175.78;5019817;28;20109;-58
2021/11/11 02:42:55;;;;;;;14.95;6.40;;;;;;;9.40;43.18;102170.38;5007989;28;20077;-57
2021/11/11 02:45:26;;;;;;;12.27;6.13;;;;;;;9.41;43.30;102180.09;4999674;28;20022;-59
2021/11/11 02:47:53;;;;;;;9.55;5.80;;;;;;;9.42;43.76;102181.84;4999726;28;20433;-58
2021/11/11 02:50:19;;;;;;;12.20;6.22;;;;;;;9.41;43.84;102180.09;4999703;28;20033;-58
2021/11/11 02:52:46;;;;;;;15.10;6.28;;;;;;;9.39;43.44;102176.66;4999765;28;20390;-59
2021/11/11 02:55:12;;;;;;;17.55;6.47;;;;;;;9.38;44.27;102182.94;4999784;28;20040;-58
2021/11/11 02:57:39;;;;;;;16.45;7.28;;;;;;;9.34;44.34;102168.03;4999788;28;20030;-58
2021/11/11 03:00:11;;;;;;;12.48;5.93;;;;;;;9.34;43.47;102178.75;5017178;28;20065;-57
2021/11/11 03:02:40;;;;;;;11.77;7.65;;;;;;;9.34;43.23;102168.03;5016929;28;20367;-59
2021/11/11 03:05:08;;;;;;;12.88;6.15;;;;;;;9.28;44.21;102166.59;5000184;28;20034;-58
2021/11/11 03:07:33;;;;;;;12.00;6.07;;;;;;;9.32;43.85;102177.97;5017199;28;20387;-58
2021/11/11 03:09:59;;;;;;;16.20;6.93;;;;;;;9.26;44.08;102173.84;5016993;28;20033;-58
2021/11/11 03:12:24;;;;;;;13.10;6.28;;;;;;;9.28;42.99;102179.09;4999372;28;20112;-59
2021/11/11 03:14:51;;;;;;;15.45;5.75;;;;;;;9.22;43.50;102168.75;4982818;28;20037;-58
2021/11/11 03:17:17;;;;;;;13.55;6.90;;;;;;;9.26;43.88;102178.31;4998871;28;20041;-57
2021/11/11 03:19:43;;;;;;;13.55;5.97;;;;;;;9.30;44.25;102182.53;5016733;28;20391;-58
2021/11/11 03:22:12;;;;;;;14.57;6.03;;;;;;;9.30;43.76;102179.84;5016540;28;20022;-57
2021/11/11 03:24:39;;;;;;;11.43;6.28;;;;;;;9.31;43.48;102184.25;4999333;28;20022;-58
2021/11/11 03:27:06;;;;;;;16.08;6.75;;;;;;;9.30;44.38;102183.41;5016293;28;20034;-57
2021/11/11 03:29:31;;;;;;;11.82;5.85;;;;;;;9.31;43.37;102178.91;5016777;28;20490;-58
2021/11/11 03:31:57;;;;;;;14.98;6.78;;;;;;;9.30;43.36;102182.53;4999049;28;20046;-57
2021/11/11 03:34:23;;;;;;;25.75;6.97;;;;;;;9.30;43.33;102177.19;5016638;28;20026;-58
2021/11/11 03:36:52;;;;;;;11.60;6.30;;;;;;;9.30;43.43;102180.72;4999372;28;20072;-58
2021/11/11 03:39:18;;;;;;;27.58;6.93;;;;;;;9.26;43.85;102164.97;5016698;28;20029;-57
2021/11/11 03:41:45;;;;;;;14.25;7.15;;;;;;;9.27;44.52;102172.00;5017997;28;20025;-57
2021/11/11 03:44:11;;;;;;;19.98;6.57;;;;;;;9.28;44.30;102171.06;5035558;28;20053;-57
2021/11/11 03:46:37;;;;;;;13.45;6.35;;;;;;;9.26;44.00;102176.50;5018257;28;20483;-59
2021/11/11 03:49:02;;;;;;;13.43;6.22;;;;;;;9.25;43.82;102179.25;5018167;28;20021;-58
2021/11/11 03:51:28;;;;;;;17.83;6.32;;;;;;;9.23;43.54;102183.84;5036023;28;20044;-58
2021/11/11 03:53:54;;;;;;;12.57;6.68;;;;;;;9.23;44.17;102183.84;5035859;28;20028;-57
2021/11/11 03:56:19;;;;;;;11.43;5.60;;;;;;;9.19;44.62;102174.25;5036246;28;20025;-59
2021/11/11 03:58:46;;;;;;;12.20;5.95;;;;;;;9.21;43.14;102177.72;5017928;28;20136;-58
2021/11/11 04:01:12;;;;;;;14.32;6.43;;;;;;;9.25;44.25;102185.47;5035943;28;20104;-59
2021/11/11 04:03:37;;;;;;;15.40;5.93;;;;;;;9.25;44.06;102184.59;5035577;28;20036;-58
2021/11/11 04:06:03;;;;;;;12.93;6.93;;;;;;;9.25;44.45;102195.31;5035428;28;20025;-58
2021/11/11 04:08:30;;;;;;;13.35;5.53;;;;;;;9.22;43.69;102187.44;5035872;28;20029;-55
2021/11/11 04:10:55;;;;;;;12.52;6.07;;;;;;;9.22;44.00;102190.13;5036231;28;20033;-57
2021/11/11 04:13:21;;;;;;;12.52;5.30;;;;;;;9.19;44.26;102187.63;5035990;28;20025;-57
2021/11/11 04:15:46;;;;;;;14.25;5.88;;;;;;;9.19;44.16;102190.28;5001587;28;20025;-58
2021/11/11 04:18:11;;;;;;;16.45;5.60;;;;;;;9.17;44.34;102189.53;5035694;28;20555;-57
2021/11/11 04:20:37;;;;;;;12.07;5.80;;;;;;;9.15;43.79;102191.44;5017921;28;20028;-57
2021/11/11 04:23:03;;;;;;;14.00;6.43;;;;;;;9.14;43.43;102198.59;5035646;28;20052;-57
2021/11/11 04:25:35;;;;;;;14.73;7.25;;;;;;;9.13;43.43;102195.97;5035612;28;20025;-57
2021/11/11 04:28:05;;;;;;;11.57;5.83;;;;;;;9.11;44.55;102198.75;5035187;28;20029;-58
2021/11/11 04:30:33;;;;;;;10.57;5.63;;;;;;;9.09;44.16;102189.97;5035099;28;20347;-57
2021/11/11 04:32:59;;;;;;;16.10;6.32;;;;;;;9.09;44.19;102194.44;5035690;28;20017;-57
2021/11/11 04:35:26;;;;;;;9.57;5.43;;;;;;;9.09;44.62;102189.97;5017546;28;20107;-58
2021/11/11 04:38:02;;;;;;;12.02;6.43;;;;;;;9.09;43.49;102199.78;5035195;28;20405;-57
2021/11/11 04:43:35;;;;;;;12.95;6.43;;;;;;;9.00;43.70;102184.28;5035318;28;20064;-57
2021/11/11 04:51:24;;;;;;;11.40;6.25;;;;;;;9.03;43.86;102194.78;5034958;28;20025;-56
2021/11/11 05:04:27;;;;;;;11.18;6.15;;;;;;;8.99;45.04;102198.59;5035119;28;20525;-58
2021/11/11 05:06:54;;;;;;;15.68;7.32;;;;;;;9.01;45.12;102202.03;5017437;28;20075;-58
2021/11/11 05:09:19;;;;;;;11.50;5.63;;;;;;;8.94;44.47;102195.28;5016815;28;20029;-58
2021/11/11 05:11:45;;;;;;;13.07;5.63;;;;;;;8.98;43.75;102203.06;5016849;28;20359;-58
2021/11/11 05:14:11;;;;;;;12.88;5.85;;;;;;;8.97;44.48;102205.81;5016993;28;20017;-57
2021/11/11 05:16:36;;;;;;;11.82;5.03;;;;;;;8.93;44.06;102207.81;5034539;28;20393;-57
2021/11/11 05:19:01;;;;;;;8.93;4.80;;;;;;;8.97;43.77;102214.69;5034404;28;20368;-57
2021/11/11 05:21:27;;;;;;;12.38;6.60;;;;;;;8.99;44.66;102214.63;5016334;28;20064;-57
2021/11/11 05:23:52;;;;;;;13.10;5.63;;;;;;;8.98;43.83;102218.25;5034792;28;20126;-58
2021/11/11 05:26:18;;;;;;;15.35;5.93;;;;;;;8.98;45.10;102224.44;5034795;28;20036;-58
2021/11/11 05:28:43;;;;;;;15.27;6.55;;;;;;;8.95;44.67;102213.94;5034879;28;20061;-57
2021/11/11 05:31:09;;;;;;;12.70;6.35;;;;;;;8.96;44.69;102212.97;5016996;28;20112;-58
2021/11/11 05:33:34;;;;;;;16.08;6.32;;;;;;;8.96;43.83;102209.44;5034689;28;20163;-58
2021/11/11 05:35:59;;;;;;;10.48;5.18;;;;;;;8.94;44.72;102214.00;5034525;28;20025;-57
2021/11/11 05:38:25;;;;;;;13.55;6.15;;;;;;;8.95;43.89;102207.72;5034207;28;20030;-58
2021/11/11 05:40:50;;;;;;;15.30;6.72;;;;;;;8.95;44.31;102208.59;5038110;28;20628;-57
2021/11/11 05:43:16;;;;;;;11.25;5.80;;;;;;;8.93;43.86;102205.16;5038089;28;20073;-58
2021/11/11 05:45:41;;;;;;;18.13;5.95;;;;;;;8.90;44.52;102205.31;5038457;28;20033;-59
2021/11/11 05:48:07;;;;;;;14.80;6.68;;;;;;;8.90;44.29;102204.44;5020687;28;20501;-58
2021/11/11 05:50:32;;;;;;;12.07;5.70;;;;;;;8.93;43.92;102220.31;5020272;28;20026;-58
2021/11/11 05:52:58;;;;;;;20.88;6.88;;;;;;;8.92;45.14;102222.13;5038344;28;20482;-58
2021/11/11 05:55:23;;;;;;;10.55;6.32;;;;;;;8.93;44.88;102237.22;5038146;28;20048;-57
2021/11/11 05:57:48;;;;;;;17.65;6.18;;;;;;;8.94;44.24;102230.03;5037892;28;20156;-58
2021/11/11 06:00:18;;;;;;;14.88;5.78;;;;;;;8.94;44.52;102233.56;5038012;28;20057;-59
2021/11/11 06:02:44;;;;;;;18.23;5.50;;;;;;;8.94;44.24;102227.34;5037965;28;20120;-58
2021/11/11 06:05:09;;;;;;;14.38;6.68;;;;;;;8.95;44.37;102237.97;5037961;28;20034;-58
2021/11/11 06:07:35;;;;;;;16.10;6.28;;;;;;;8.91;44.75;102233.72;5004012;28;20048;-58
2021/11/11 06:10:01;;;;;;;10.95;5.55;;;;;;;8.96;44.35;102237.00;5038064;28;20029;-58
2021/11/11 06:12:26;;;;;;;16.33;6.05;;;;;;;8.96;45.17;102233.50;5037993;28;20128;-58
2021/11/11 06:14:51;;;;;;;15.55;6.72;;;;;;;8.94;44.18;102227.34;5037434;28;20512;-58
2021/11/11 06:17:17;;;;;;;12.68;6.18;;;;;;;8.99;44.45;102242.19;5037699;28;20030;-57
2021/11/11 06:19:45;;;;;;;16.20;6.97;;;;;;;8.99;44.25;102246.69;5036636;28;20100;-58
2021/11/11 06:22:10;;;;;;;16.65;7.45;;;;;;;8.94;44.65;102232.69;5004037;28;20029;-57
2021/11/11 06:24:35;;;;;;;13.90;6.82;;;;;;;9.03;44.92;102234.88;5037782;28;20478;-58
2021/11/11 06:27:01;;;;;;;9.27;5.25;;;;;;;9.03;44.58;102229.53;5003568;28;20064;-58
2021/11/11 06:29:27;;;;;;;15.77;6.05;;;;;;;9.07;44.63;102239.13;5020020;28;20032;-58
2021/11/11 06:31:52;;;;;;;19.40;5.30;;;;;;;9.08;44.03;102246.16;5037908;28;20040;-57
2021/11/11 06:34:18;;;;;;;19.48;6.75;;;;;;;9.08;44.14;102240.81;5037829;28;20029;-56
2021/11/11 06:36:43;;;;;;;8.13;4.90;;;;;;;9.11;44.92;102240.66;5019811;28;20478;-58
2021/11/11 06:39:09;;;;;;;9.93;5.15;;;;;;;9.16;45.26;102243.94;5037212;28;20021;-57
2021/11/11 06:41:34;;;;;;;15.18;5.97;;;;;;;9.17;44.89;102249.22;5002783;28;20025;-58
2021/11/11 06:44:00;;;;;;;21.90;6.60;;;;;;;9.17;45.48;102254.56;5036809;28;20045;-57
2021/11/11 06:46:25;;;;;;;12.45;6.40;;;;;;;9.15;44.28;102252.91;5037225;28;20033;-58
2021/11/11 06:48:51;;;;;;;12.45;6.05;;;;;;;9.15;44.24;102263.59;5037457;28;20026;-57
2021/11/11 06:51:16;;;;;;;15.55;6.65;;;;;;;9.13;44.08;102261.00;5018324;28;20439;-58
2021/11/11 06:53:42;;;;;;;12.65;5.68;;;;;;;9.15;44.03;102263.59;5036847;28;20108;-57
2021/11/11 06:56:07;;;;;;;18.15;5.25;;;;;;;9.18;45.07;102258.09;5037285;28;20070;-57
2021/11/11 06:58:33;;;;;;;16.13;6.97;;;;;;;9.20;44.31;102266.88;5036868;28;20394;-57
2021/11/11 07:01:00;;;;;;;19.00;7.18;;;;;;;9.22;45.27;102270.31;5037307;28;20037;-58
2021/11/11 07:03:27;;;;;;;13.27;6.93;;;;;;;9.25;44.17;102275.50;5036951;28;20028;-57
2021/11/11 07:05:52;;;;;;;17.92;6.65;;;;;;;9.22;44.60;102268.53;5002982;28;20021;-57
2021/11/11 07:08:18;;;;;;;13.50;5.88;;;;;;;9.28;44.77;102275.34;5036932;28;20032;-58
2021/11/11 07:10:45;;;;;;;19.33;6.50;;;;;;;9.28;44.42;102275.34;5036364;28;20032;-58
2021/11/11 07:13:11;;;;;;;13.63;6.25;;;;;;;9.27;44.92;102265.56;5019008;28;20026;-57
2021/11/11 07:15:40;;;;;;;17.90;6.28;;;;;;;9.34;44.35;102266.97;5036651;28;20071;-57
2021/11/11 07:18:08;;;;;;;15.48;6.97;;;;;;;9.38;45.21;102265.00;5036500;28;20022;-58
2021/11/11 07:20:33;;;;;;;12.25;6.57;;;;;;;9.42;45.34;102270.09;5036638;28;20037;-57
2021/11/11 07:23:00;;;;;;;14.43;6.47;;;;;;;9.45;44.68;102272.59;5036718;28;20052;-57
2021/11/11 07:25:27;;;;;;;14.70;7.22;;;;;;;9.55;44.88;102267.59;5036725;28;20029;-57
2021/11/11 07:27:53;;;;;;;21.67;7.10;;;;;;;9.63;45.56;102266.16;5018525;28;20029;-58
2021/11/11 07:30:19;;;;;;;18.23;6.50;;;;;;;9.70;44.58;102280.94;5035967;28;20029;-58
2021/11/11 07:32:45;;;;;;;16.65;6.20;;;;;;;9.78;45.33;102276.00;5018420;28;20025;-57
2021/11/11 07:35:11;;;;;;;14.23;6.45;;;;;;;9.85;44.43;102285.38;5036583;28;20043;-58
2021/11/11 07:37:39;;;;;;;14.65;6.85;;;;;;;9.92;45.35;102283.22;5018992;28;20148;-57
2021/11/11 07:40:06;;;;;;;17.15;8.00;;;;;;;10.01;44.78;102287.19;5036283;28;20052;-58
2021/11/11 07:42:32;;;;;;;16.80;7.28;;;;;;;10.06;45.54;102291.31;5035840;28;20056;-57
2021/11/11 07:44:57;;;;;;;15.02;7.93;;;;;;;10.13;45.25;102286.50;5036177;28;20025;-58
2021/11/11 07:47:27;;;;;;;26.45;8.35;;;;;;;10.19;45.24;102286.16;5036163;28;20072;-57
2021/11/11 07:49:54;;;;;;;21.30;8.38;;;;;;;10.25;45.19;102283.09;5035526;28;20033;-57
2021/11/11 07:52:20;;;;;;;14.18;7.20;;;;;;;10.30;45.34;102286.38;5035211;28;20033;-58
2021/11/11 07:54:45;;;;;;;23.02;7.80;;;;;;;10.36;44.96;102289.53;5035919;28;20071;-58
2021/11/11 07:57:11;;;;;;;16.80;7.10;;;;;;;10.41;45.13;102297.31;5035761;28;20028;-57
2021/11/11 07:59:39;;;;;;;23.95;9.23;;;;;;;10.48;45.31;102287.94;5018102;28;20061;-58
2021/11/11 08:02:05;;;;;;;16.63;7.00;;;;;;;10.58;45.00;102301.66;5017909;28;20060;-58
2021/11/11 08:04:31;;;;;;;16.52;7.68;;;;;;;10.64;45.11;102304.78;5035327;28;20433;-58
2021/11/11 08:06:56;;;;;;;23.20;7.63;;;;;;;10.71;45.08;102305.28;5035174;28;20033;-58
2021/11/11 08:09:22;;;;;;;23.23;8.75;;;;;;;10.71;45.04;102300.81;5017404;28;20026;-57
2021/11/11 08:11:49;;;;;;;18.40;8.23;;;;;;;10.85;44.97;102314.22;5035325;28;20032;-57
2021/11/11 08:14:14;;;;;;;16.02;7.95;;;;;;;10.92;45.52;102320.91;5035726;28;20104;-60
2021/11/11 08:16:40;;;;;;;16.50;8.13;;;;;;;11.01;45.13;102309.63;5034649;28;20060;-57
2021/11/11 08:19:05;;;;;;;18.13;8.50;;;;;;;11.17;45.33;102314.88;5034654;28;20502;-58
2021/11/11 08:21:31;;;;;;;21.65;8.60;;;;;;;11.29;45.12;102318.59;5035090;28;20082;-58
2021/11/11 08:23:56;;;;;;;24.77;9.02;;;;;;;11.43;45.09;102321.28;5035056;28;20021;-58
2021/11/11 08:26:21;;;;;;;14.75;6.70;;;;;;;11.58;45.61;102320.31;5034821;28;20041;-59
2021/11/11 08:28:47;;;;;;;19.27;9.68;;;;;;;11.70;45.17;102308.78;5034913;28;20037;-58
2021/11/11 08:31:12;;;;;;;17.38;7.28;;;;;;;11.88;44.76;102329.06;5000603;28;20382;-58
2021/11/11 08:33:38;;;;;;;20.83;8.93;;;;;;;12.05;44.47;102322.59;5034716;28;20025;-58
2021/11/11 08:36:04;;;;;;;19.35;8.18;;;;;;;12.09;44.84;102316.91;5034241;28;20025;-58
2021/11/11 08:38:30;;;;;;;18.23;6.68;;;;;;;12.23;44.74;102324.03;5034782;28;20026;-58
2021/11/11 08:40:56;;;;;;;14.50;8.23;;;;;;;12.49;45.13;102324.97;5034670;28;20421;-59
2021/11/11 08:43:22;;;;;;;22.83;7.93;;;;;;;12.57;44.77;102317.22;5016827;28;20042;-58
2021/11/11 08:45:49;;;;;;;11.90;6.38;;;;;;;12.64;44.97;102311.34;5034496;28;20395;-59
2021/11/11 08:48:14;;;;;;;16.75;8.20;;;;;;;12.73;44.90;102312.53;5034651;28;20048;-60
2021/11/11 08:50:40;;;;;;;18.60;7.68;;;;;;;12.78;44.55;102310.38;5034230;28;20539;-58
2021/11/11 08:53:08;;;;;;;20.42;7.80;;;;;;;12.87;44.38;102312.41;5034142;28;20386;-59
2021/11/11 08:55:34;;;;;;;16.90;7.22;;;;;;;12.93;44.38;102311.97;5016350;28;20018;-59
2021/11/11 08:58:01;;;;;;;18.83;7.68;;;;;;;12.98;44.92;102296.38;5034203;28;20025;-59
2021/11/11 09:00:31;;;;;;;16.15;8.02;;;;;;;13.18;44.51;102306.63;5034329;28;20029;-59
2021/11/11 09:02:58;;;;;;;13.38;7.03;;;;;;;13.26;44.69;102301.53;5034005;28;20439;-59
2021/11/11 09:05:24;;;;;;;19.42;8.20;;;;;;;13.29;44.29;102306.69;5034171;28;20029;-58
2021/11/11 09:07:51;;;;;;;14.82;7.70;;;;;;;13.27;44.37;102287.13;5034296;28;20030;-58
2021/11/11 09:10:18;;;;;;;16.25;7.93;;;;;;;13.31;44.55;102285.09;5034277;28;20021;-58
2021/11/11 09:12:45;;;;;;;19.88;7.57;;;;;;;13.39;44.49;102280.88;5016771;28;20363;-58
2021/11/11 09:15:12;;;;;;;17.65;8.63;;;;;;;13.51;45.28;102280.94;5037200;28;20151;-59
2021/11/11 09:17:40;;;;;;;16.10;7.68;;;;;;;13.60;45.55;102285.63;5038488;28;20025;-58
2021/11/11 09:20:11;;;;;;;26.48;8.40;;;;;;;13.63;44.30;102283.56;5038333;28;20079;-59
2021/11/11 09:22:37;;;;;;;19.52;8.57;;;;;;;13.75;44.31;102277.28;5038546;28;20021;-59
2021/11/11 09:25:04;;;;;;;21.13;9.27;;;;;;;13.92;44.91;102276.91;5038692;28;20025;-58
2021/11/11 09:27:29;;;;;;;23.13;8.43;;;;;;;14.01;45.39;102286.13;5038364;28;20041;-58
2021/11/11 09:29:55;;;;;;;17.90;9.48;;;;;;;14.12;45.56;102275.38;5038175;28;20048;-59
2021/11/11 09:32:21;;;;;;;18.30;8.65;;;;;;;14.31;45.14;102275.69;5038255;28;20049;-58
2021/11/11 09:34:47;;;;;;;24.35;9.98;;;;;;;14.45;44.17;102272.84;5038227;28;20028;-59
2021/11/11 09:37:13;;;;;;;18.20;8.98;;;;;;;14.48;44.17;102261.81;5038044;28;20489;-58
2021/11/11 09:39:38;;;;;;;21.13;8.93;;;;;;;14.75;44.91;102274.09;5038067;28;20105;-59
2021/11/11 09:42:04;;;;;;;21.33;9.32;;;;;;;15.04;44.77;102264.56;5020323;28;20056;-58
2021/11/11 09:44:30;;;;;;;20.92;8.65;;;;;;;15.22;44.06;102264.91;5020367;28;20045;-58
2021/11/11 09:46:56;;;;;;;24.80;8.93;;;;;;;15.25;44.04;102262.81;5037750;28;20021;-58
2021/11/11 09:49:22;;;;;;;20.70;9.13;;;;;;;15.26;45.11;102255.59;5038169;28;20021;-59
2021/11/11 09:51:51;;;;;;;18.13;8.43;;;;;;;15.26;45.22;102261.84;5037795;28;20385;-58
2021/11/11 09:58:34;;;;;;;21.65;8.75;;;;;;;15.26;45.21;102269.09;5037689;28;20072;-58
2021/11/11 09:59:50;;;;;;;21.30;9.65;;;;;;;15.38;44.74;102251.91;5037808;28;20289;-59
2021/11/11 10:02:16;;;;;;;21.42;8.95;;;;;;;15.54;45.31;102253.25;5037876;28;20033;-59
2021/11/11 10:04:42;;;;;;;21.05;9.45;;;;;;;15.73;43.94;102252.56;5037755;28;20371;-59
2021/11/11 10:07:07;;;;;;;21.52;9.82;;;;;;;16.01;44.08;102257.38;5038003;28;20032;-59
2021/11/11 10:09:44;;;;;;;20.10;8.35;;;;;;;16.86;42.10;102240.03;5038071;28;20017;-59
2021/11/11 10:12:18;;;;;;;17.73;8.82;;;;;;;17.46;42.77;102251.81;5037913;28;20359;-59
2021/11/11 10:14:46;;;;;;;21.90;8.88;;;;;;;17.55;42.18;102237.47;5037793;28;20462;-59
2021/11/11 10:17:12;;;;;;;23.25;10.00;;;;;;;17.77;41.66;102241.78;5037488;28;20033;-59
2021/11/11 10:19:41;;;;;;;22.73;9.77;;;;;;;17.90;42.88;102254.06;5020672;28;20112;-60
2021/11/11 10:22:16;;;;;;;20.95;9.77;;;;;;;18.02;42.83;102252.94;5037690;28;20025;-59
2021/11/11 10:24:47;;;;;;;18.95;9.80;;;;;;;18.53;42.16;102251.78;5037742;28;20029;-59
2021/11/11 10:28:01;;;;;;;18.73;9.23;;;;;;;19.09;41.02;102241.72;5036708;28;20038;-59
2021/11/11 10:30:09;;;;;;;23.85;9.15;;;;;;;19.67;40.85;102233.25;5029842;28;20029;-60
2021/11/11 10:32:39;;;;;;;20.38;9.80;;;;;;;20.08;40.62;102235.38;5037344;28;20468;-59
2021/11/11 10:35:06;;;;;;;24.30;8.82;;;;;;;20.45;40.56;102239.78;5020200;28;20556;-59
2021/11/11 10:37:34;;;;;;;18.70;10.02;;;;;;;20.78;39.81;102238.97;5019694;28;20025;-59
2021/11/11 10:40:26;;;;;;;21.17;10.52;;;;;;;21.22;39.24;102245.19;5037332;28;20103;-59
2021/11/11 10:42:54;;;;;;;19.45;9.82;;;;;;;21.53;39.04;102237.28;5008507;28;20041;-59
2021/11/11 10:45:23;;;;;;;22.80;9.50;;;;;;;21.79;38.84;102232.59;5036859;28;20351;-60
2021/11/11 10:47:50;;;;;;;17.70;9.63;;;;;;;22.05;39.45;102245.09;5036362;28;20021;-59
2021/11/11 10:50:21;;;;;;;26.60;10.30;;;;;;;22.28;38.36;102244.47;5036011;28;20029;-60
2021/11/11 10:52:50;;;;;;;23.45;9.85;;;;;;;22.41;38.87;102234.72;5036044;28;20021;-60
2021/11/11 10:55:26;;;;;;;21.15;9.55;;;;;;;22.56;37.64;102237.56;5035997;28;20040;-60
2021/11/11 10:57:59;;;;;;;24.13;11.30;;;;;;;22.69;38.52;102231.63;5035683;28;20048;-60
2021/11/11 11:00:36;;;;;;;22.48;10.75;;;;;;;22.77;37.46;102223.41;5035946;28;20017;-60
2021/11/11 11:03:18;;;;;;;21.38;10.93;;;;;;;22.92;37.08;102232.59;5035657;28;20044;-60
2021/11/11 11:05:49;;;;;;;18.65;9.88;;;;;;;23.03;37.00;102216.66;5035674;28;20367;-60
2021/11/11 11:08:18;;;;;;;25.85;10.75;;;;;;;23.14;37.08;102216.25;5017806;28;20432;-60
2021/11/11 11:10:48;;;;;;;17.33;9.60;;;;;;;23.33;36.64;102217.75;5035590;28;20025;-61
2021/11/11 11:13:16;;;;;;;23.13;10.48;;;;;;;23.48;37.03;102215.97;5035560;28;20022;-60
2021/11/11 11:15:46;;;;;;;23.38;9.65;;;;;;;23.60;36.78;102219.16;5035432;28;20037;-60
2021/11/11 11:18:12;;;;;;;20.73;10.45;;;;;;;23.69;36.69;102212.59;5035172;28;20108;-60
2021/11/11 11:20:38;;;;;;;26.88;11.10;;;;;;;23.82;37.00;102215.56;5017380;28;20036;-60
2021/11/11 11:23:10;;;;;;;24.83;10.85;;;;;;;23.93;36.24;102225.25;5035046;28;20021;-61
2021/11/11 11:25:37;;;;;;;25.65;11.27;;;;;;;23.98;36.41;102217.38;5035020;28;20026;-60
2021/11/11 11:28:27;;;;;;;22.75;11.05;;;;;;;24.04;36.59;102213.88;5035233;28;20109;-60
2021/11/11 11:30:54;;;;;;;24.90;9.98;;;;;;;24.01;35.80;102204.13;5034866;28;20025;-61
2021/11/11 11:33:35;;;;;;;22.35;10.25;;;;;;;24.03;36.07;102204.81;5034804;28;20036;-60
2021/11/11 11:36:01;;;;;;;21.33;10.38;;;;;;;24.02;36.20;102210.47;5035142;28;20451;-61
2021/11/11 11:38:28;;;;;;;22.17;10.88;;;;;;;24.06;35.45;102212.69;5034501;28;20036;-60
2021/11/11 11:40:54;;;;;;;20.23;10.38;;;;;;;24.09;36.04;102201.34;5034966;28;20021;-60
2021/11/11 11:43:30;;;;;;;21.83;10.10;;;;;;;24.21;35.89;102207.25;5034449;28;20128;-60